sensor_id;sensor_type;location;lat;lon;timestamp;P1;durP1;ratioP1;P2;durP2;ratioP2
75456;SDS011;64036;48.266;14.192;2023-07-16T00:01:52;5.30;;;2.80;;
75456;SDS011;64036;48.266;14.192;2023-07-16T00:04:17;7.40;;;2.90;;
75456;SDS011;64036;48.266;14.192;2023-07-16T00:06:43;4.90;;;2.80;;
75456;SDS011;64036;48.266;14.192;2023-07-16T00:09:08;4.90;;;2.70;;
75456;SDS011;64036;48.266;14.192;2023-07-16T00:11:34;4.90;;;2.60;;
75456;SDS011;64036;48.266;14.192;2023-07-16T00:13:59;5.10;;;2.90;;
75456;SDS011;64036;48.266;14.192;2023-07-16T00:16:27;6.60;;;3.10;;
75456;SDS011;64036;48.266;14.192;2023-07-16T00:18:53;6.30;;;3.00;;
75456;SDS011;64036;48.266;14.192;2023-07-16T00:21:19;7.90;;;2.80;;
75456;SDS011;64036;48.266;14.192;2023-07-16T00:23:45;7.50;;;3.20;;
75456;SDS011;64036;48.266;14.192;2023-07-16T00:26:12;5.20;;;2.90;;
75456;SDS011;64036;48.266;14.192;2023-07-16T00:28:38;4.60;;;2.80;;
75456;SDS011;64036;48.266;14.192;2023-07-16T00:31:04;5.70;;;3.00;;
75456;SDS011;64036;48.266;14.192;2023-07-16T00:33:29;5.10;;;2.80;;
75456;SDS011;64036;48.266;14.192;2023-07-16T00:35:55;5.10;;;3.20;;
75456;SDS011;64036;48.266;14.192;2023-07-16T00:38:21;6.80;;;3.10;;
75456;SDS011;64036;48.266;14.192;2023-07-16T00:40:47;6.10;;;3.10;;
75456;SDS011;64036;48.266;14.192;2023-07-16T00:43:13;5.30;;;3.20;;
75456;SDS011;64036;48.266;14.192;2023-07-16T00:45:39;4.60;;;2.80;;
75456;SDS011;64036;48.266;14.192;2023-07-16T00:48:06;5.20;;;2.70;;
75456;SDS011;64036;48.266;14.192;2023-07-16T00:50:33;4.60;;;2.80;;
75456;SDS011;64036;48.266;14.192;2023-07-16T00:53:01;4.60;;;2.80;;
75456;SDS011;64036;48.266;14.192;2023-07-16T00:55:29;4.90;;;2.70;;
75456;SDS011;64036;48.266;14.192;2023-07-16T00:58:00;4.70;;;2.90;;
75456;SDS011;64036;48.266;14.192;2023-07-16T01:00:37;5.70;;;3.00;;
75456;SDS011;64036;48.266;14.192;2023-07-16T01:03:06;5.10;;;3.00;;
75456;SDS011;64036;48.266;14.192;2023-07-16T01:08:45;4.70;;;2.90;;
75456;SDS011;64036;48.266;14.192;2023-07-16T01:11:24;3.90;;;2.70;;
75456;SDS011;64036;48.266;14.192;2023-07-16T01:13:51;6.30;;;2.90;;
75456;SDS011;64036;48.266;14.192;2023-07-16T01:16:22;5.00;;;2.80;;
75456;SDS011;64036;48.266;14.192;2023-07-16T01:21:16;4.70;;;2.60;;
75456;SDS011;64036;48.266;14.192;2023-07-16T01:29:47;5.20;;;2.80;;
75456;SDS011;64036;48.266;14.192;2023-07-16T01:32:15;5.10;;;2.70;;
75456;SDS011;64036;48.266;14.192;2023-07-16T01:34:43;3.50;;;2.50;;
75456;SDS011;64036;48.266;14.192;2023-07-16T01:37:09;5.40;;;2.60;;
75456;SDS011;64036;48.266;14.192;2023-07-16T01:39:35;5.30;;;3.00;;
75456;SDS011;64036;48.266;14.192;2023-07-16T01:42:02;5.50;;;2.60;;
75456;SDS011;64036;48.266;14.192;2023-07-16T01:44:28;5.30;;;3.00;;
75456;SDS011;64036;48.266;14.192;2023-07-16T01:49:55;4.70;;;3.10;;
75456;SDS011;64036;48.266;14.192;2023-07-16T01:52:21;6.90;;;3.40;;
75456;SDS011;64036;48.266;14.192;2023-07-16T01:54:47;5.40;;;3.30;;
75456;SDS011;64036;48.266;14.192;2023-07-16T01:57:13;5.80;;;3.10;;
75456;SDS011;64036;48.266;14.192;2023-07-16T01:59:39;5.30;;;3.00;;
75456;SDS011;64036;48.266;14.192;2023-07-16T02:02:04;6.10;;;3.10;;
75456;SDS011;64036;48.266;14.192;2023-07-16T02:04:30;5.40;;;3.30;;
75456;SDS011;64036;48.266;14.192;2023-07-16T02:06:56;7.20;;;3.20;;
75456;SDS011;64036;48.266;14.192;2023-07-16T02:09:22;5.40;;;3.40;;
75456;SDS011;64036;48.266;14.192;2023-07-16T02:11:47;7.50;;;3.60;;
75456;SDS011;64036;48.266;14.192;2023-07-16T02:14:13;6.40;;;3.80;;
75456;SDS011;64036;48.266;14.192;2023-07-16T02:16:40;5.90;;;3.70;;
75456;SDS011;64036;48.266;14.192;2023-07-16T02:19:05;4.60;;;3.30;;
75456;SDS011;64036;48.266;14.192;2023-07-16T02:21:31;7.60;;;3.40;;
75456;SDS011;64036;48.266;14.192;2023-07-16T02:23:56;5.10;;;3.30;;
75456;SDS011;64036;48.266;14.192;2023-07-16T02:26:22;5.60;;;3.20;;
75456;SDS011;64036;48.266;14.192;2023-07-16T02:28:48;5.20;;;3.20;;
75456;SDS011;64036;48.266;14.192;2023-07-16T02:31:13;6.10;;;3.10;;
75456;SDS011;64036;48.266;14.192;2023-07-16T02:33:39;4.90;;;3.30;;
75456;SDS011;64036;48.266;14.192;2023-07-16T02:36:05;6.10;;;3.20;;
75456;SDS011;64036;48.266;14.192;2023-07-16T02:38:31;5.30;;;3.50;;
75456;SDS011;64036;48.266;14.192;2023-07-16T02:40:57;6.00;;;3.40;;
75456;SDS011;64036;48.266;14.192;2023-07-16T02:43:23;4.70;;;3.20;;
75456;SDS011;64036;48.266;14.192;2023-07-16T02:45:48;5.30;;;2.90;;
75456;SDS011;64036;48.266;14.192;2023-07-16T02:48:14;5.40;;;3.40;;
75456;SDS011;64036;48.266;14.192;2023-07-16T02:50:40;5.20;;;3.40;;
75456;SDS011;64036;48.266;14.192;2023-07-16T02:53:06;5.30;;;3.20;;
75456;SDS011;64036;48.266;14.192;2023-07-16T02:55:33;6.20;;;3.20;;
75456;SDS011;64036;48.266;14.192;2023-07-16T02:58:00;6.70;;;3.50;;
75456;SDS011;64036;48.266;14.192;2023-07-16T03:00:30;5.90;;;3.30;;
75456;SDS011;64036;48.266;14.192;2023-07-16T03:02:57;6.70;;;3.10;;
75456;SDS011;64036;48.266;14.192;2023-07-16T03:05:28;4.70;;;3.30;;
75456;SDS011;64036;48.266;14.192;2023-07-16T03:07:54;5.00;;;3.20;;
75456;SDS011;64036;48.266;14.192;2023-07-16T03:10:23;6.00;;;3.10;;
75456;SDS011;64036;48.266;14.192;2023-07-16T03:12:52;5.30;;;3.00;;
75456;SDS011;64036;48.266;14.192;2023-07-16T03:15:18;8.00;;;3.50;;
75456;SDS011;64036;48.266;14.192;2023-07-16T03:17:44;7.60;;;3.10;;
75456;SDS011;64036;48.266;14.192;2023-07-16T03:20:10;5.90;;;3.20;;
75456;SDS011;64036;48.266;14.192;2023-07-16T03:22:35;5.70;;;2.80;;
75456;SDS011;64036;48.266;14.192;2023-07-16T03:25:01;5.70;;;2.80;;
75456;SDS011;64036;48.266;14.192;2023-07-16T03:27:28;5.30;;;2.90;;
75456;SDS011;64036;48.266;14.192;2023-07-16T03:29:54;5.30;;;3.00;;
75456;SDS011;64036;48.266;14.192;2023-07-16T03:32:20;7.40;;;2.90;;
75456;SDS011;64036;48.266;14.192;2023-07-16T03:34:45;4.50;;;2.70;;
75456;SDS011;64036;48.266;14.192;2023-07-16T03:37:11;6.30;;;3.10;;
75456;SDS011;64036;48.266;14.192;2023-07-16T03:39:36;4.60;;;2.60;;
75456;SDS011;64036;48.266;14.192;2023-07-16T03:42:02;3.80;;;2.50;;
75456;SDS011;64036;48.266;14.192;2023-07-16T03:44:29;3.60;;;2.10;;
75456;SDS011;64036;48.266;14.192;2023-07-16T03:46:55;4.40;;;2.40;;
75456;SDS011;64036;48.266;14.192;2023-07-16T03:49:20;7.50;;;2.50;;
75456;SDS011;64036;48.266;14.192;2023-07-16T03:51:46;3.20;;;2.20;;
75456;SDS011;64036;48.266;14.192;2023-07-16T03:54:12;3.90;;;2.40;;
75456;SDS011;64036;48.266;14.192;2023-07-16T03:56:37;4.10;;;2.40;;
75456;SDS011;64036;48.266;14.192;2023-07-16T03:59:03;4.90;;;2.40;;
75456;SDS011;64036;48.266;14.192;2023-07-16T04:01:29;4.30;;;2.60;;
75456;SDS011;64036;48.266;14.192;2023-07-16T04:03:55;4.90;;;2.10;;
75456;SDS011;64036;48.266;14.192;2023-07-16T04:06:20;5.00;;;2.10;;
75456;SDS011;64036;48.266;14.192;2023-07-16T04:08:46;5.00;;;2.20;;
75456;SDS011;64036;48.266;14.192;2023-07-16T04:11:12;3.00;;;2.10;;
75456;SDS011;64036;48.266;14.192;2023-07-16T04:13:37;4.30;;;2.50;;
75456;SDS011;64036;48.266;14.192;2023-07-16T04:16:03;3.00;;;1.90;;
75456;SDS011;64036;48.266;14.192;2023-07-16T04:18:29;4.10;;;2.50;;
75456;SDS011;64036;48.266;14.192;2023-07-16T04:20:55;4.10;;;2.30;;
75456;SDS011;64036;48.266;14.192;2023-07-16T04:23:20;5.90;;;2.30;;
75456;SDS011;64036;48.266;14.192;2023-07-16T04:25:46;4.10;;;2.10;;
75456;SDS011;64036;48.266;14.192;2023-07-16T04:28:12;4.70;;;2.30;;
75456;SDS011;64036;48.266;14.192;2023-07-16T04:30:38;4.40;;;2.40;;
75456;SDS011;64036;48.266;14.192;2023-07-16T04:33:04;4.50;;;2.20;;
75456;SDS011;64036;48.266;14.192;2023-07-16T04:35:30;3.40;;;2.00;;
75456;SDS011;64036;48.266;14.192;2023-07-16T04:37:56;4.80;;;2.10;;
75456;SDS011;64036;48.266;14.192;2023-07-16T04:40:21;2.80;;;2.00;;
75456;SDS011;64036;48.266;14.192;2023-07-16T04:42:47;3.30;;;2.00;;
75456;SDS011;64036;48.266;14.192;2023-07-16T04:45:13;2.00;;;1.80;;
75456;SDS011;64036;48.266;14.192;2023-07-16T04:47:39;3.00;;;2.00;;
75456;SDS011;64036;48.266;14.192;2023-07-16T04:50:05;4.00;;;1.90;;
75456;SDS011;64036;48.266;14.192;2023-07-16T04:52:31;3.20;;;2.00;;
75456;SDS011;64036;48.266;14.192;2023-07-16T04:54:57;1.90;;;1.60;;
75456;SDS011;64036;48.266;14.192;2023-07-16T04:57:23;3.90;;;2.10;;
75456;SDS011;64036;48.266;14.192;2023-07-16T04:59:48;3.50;;;1.90;;
75456;SDS011;64036;48.266;14.192;2023-07-16T05:02:14;4.30;;;2.00;;
75456;SDS011;64036;48.266;14.192;2023-07-16T05:04:42;3.20;;;1.90;;
75456;SDS011;64036;48.266;14.192;2023-07-16T05:07:09;4.00;;;2.20;;
75456;SDS011;64036;48.266;14.192;2023-07-16T05:09:35;4.60;;;2.00;;
75456;SDS011;64036;48.266;14.192;2023-07-16T05:12:01;3.00;;;2.00;;
75456;SDS011;64036;48.266;14.192;2023-07-16T05:14:28;4.30;;;2.20;;
75456;SDS011;64036;48.266;14.192;2023-07-16T05:16:54;4.60;;;2.10;;
75456;SDS011;64036;48.266;14.192;2023-07-16T05:19:21;3.30;;;2.10;;
75456;SDS011;64036;48.266;14.192;2023-07-16T05:21:47;4.30;;;2.30;;
75456;SDS011;64036;48.266;14.192;2023-07-16T05:24:13;3.00;;;2.10;;
75456;SDS011;64036;48.266;14.192;2023-07-16T05:26:39;3.40;;;1.90;;
75456;SDS011;64036;48.266;14.192;2023-07-16T05:29:04;3.70;;;2.00;;
75456;SDS011;64036;48.266;14.192;2023-07-16T05:31:30;3.60;;;2.10;;
75456;SDS011;64036;48.266;14.192;2023-07-16T05:33:55;3.40;;;2.00;;
75456;SDS011;64036;48.266;14.192;2023-07-16T05:36:21;4.70;;;2.00;;
75456;SDS011;64036;48.266;14.192;2023-07-16T05:38:47;5.60;;;2.20;;
75456;SDS011;64036;48.266;14.192;2023-07-16T05:41:13;3.60;;;2.10;;
75456;SDS011;64036;48.266;14.192;2023-07-16T05:43:38;3.50;;;2.20;;
75456;SDS011;64036;48.266;14.192;2023-07-16T05:46:04;4.80;;;2.00;;
75456;SDS011;64036;48.266;14.192;2023-07-16T05:48:31;2.40;;;1.90;;
75456;SDS011;64036;48.266;14.192;2023-07-16T05:50:57;3.90;;;2.20;;
75456;SDS011;64036;48.266;14.192;2023-07-16T05:53:22;3.80;;;2.10;;
75456;SDS011;64036;48.266;14.192;2023-07-16T05:55:48;3.40;;;1.90;;
75456;SDS011;64036;48.266;14.192;2023-07-16T05:58:17;3.40;;;2.00;;
75456;SDS011;64036;48.266;14.192;2023-07-16T06:00:43;3.00;;;2.10;;
75456;SDS011;64036;48.266;14.192;2023-07-16T06:03:08;4.80;;;2.30;;
75456;SDS011;64036;48.266;14.192;2023-07-16T06:05:34;2.80;;;1.90;;
75456;SDS011;64036;48.266;14.192;2023-07-16T06:08:02;4.40;;;2.20;;
75456;SDS011;64036;48.266;14.192;2023-07-16T06:10:28;3.50;;;2.20;;
75456;SDS011;64036;48.266;14.192;2023-07-16T06:12:54;3.80;;;2.00;;
75456;SDS011;64036;48.266;14.192;2023-07-16T06:15:20;4.40;;;2.30;;
75456;SDS011;64036;48.266;14.192;2023-07-16T06:17:45;4.10;;;2.20;;
75456;SDS011;64036;48.266;14.192;2023-07-16T06:20:11;3.10;;;2.00;;
75456;SDS011;64036;48.266;14.192;2023-07-16T06:22:37;3.40;;;2.30;;
75456;SDS011;64036;48.266;14.192;2023-07-16T06:25:03;2.60;;;1.70;;
75456;SDS011;64036;48.266;14.192;2023-07-16T06:27:29;3.10;;;2.20;;
75456;SDS011;64036;48.266;14.192;2023-07-16T06:29:55;4.10;;;2.20;;
75456;SDS011;64036;48.266;14.192;2023-07-16T06:32:21;3.80;;;2.10;;
75456;SDS011;64036;48.266;14.192;2023-07-16T06:34:47;2.90;;;2.10;;
75456;SDS011;64036;48.266;14.192;2023-07-16T06:37:12;3.60;;;2.10;;
75456;SDS011;64036;48.266;14.192;2023-07-16T06:39:38;4.50;;;1.80;;
75456;SDS011;64036;48.266;14.192;2023-07-16T06:42:04;4.00;;;2.10;;
75456;SDS011;64036;48.266;14.192;2023-07-16T06:44:30;3.20;;;1.90;;
75456;SDS011;64036;48.266;14.192;2023-07-16T06:46:55;3.90;;;1.90;;
75456;SDS011;64036;48.266;14.192;2023-07-16T06:49:21;4.00;;;2.20;;
75456;SDS011;64036;48.266;14.192;2023-07-16T06:51:47;3.90;;;2.40;;
75456;SDS011;64036;48.266;14.192;2023-07-16T06:54:12;4.30;;;2.40;;
75456;SDS011;64036;48.266;14.192;2023-07-16T06:56:38;3.40;;;2.10;;
75456;SDS011;64036;48.266;14.192;2023-07-16T06:59:04;4.20;;;2.20;;
75456;SDS011;64036;48.266;14.192;2023-07-16T07:01:30;3.60;;;1.70;;
75456;SDS011;64036;48.266;14.192;2023-07-16T07:03:56;3.10;;;1.90;;
75456;SDS011;64036;48.266;14.192;2023-07-16T07:06:21;4.50;;;2.30;;
75456;SDS011;64036;48.266;14.192;2023-07-16T07:08:47;3.60;;;2.00;;
75456;SDS011;64036;48.266;14.192;2023-07-16T07:11:13;3.40;;;2.00;;
75456;SDS011;64036;48.266;14.192;2023-07-16T07:13:39;3.00;;;2.00;;
75456;SDS011;64036;48.266;14.192;2023-07-16T07:16:04;2.70;;;1.90;;
75456;SDS011;64036;48.266;14.192;2023-07-16T07:18:30;2.90;;;1.80;;
75456;SDS011;64036;48.266;14.192;2023-07-16T07:20:56;3.90;;;1.80;;
75456;SDS011;64036;48.266;14.192;2023-07-16T07:23:21;2.30;;;1.70;;
75456;SDS011;64036;48.266;14.192;2023-07-16T07:25:51;2.90;;;1.80;;
75456;SDS011;64036;48.266;14.192;2023-07-16T07:28:17;2.40;;;1.80;;
75456;SDS011;64036;48.266;14.192;2023-07-16T07:30:44;2.80;;;1.90;;
75456;SDS011;64036;48.266;14.192;2023-07-16T07:33:10;3.10;;;1.80;;
75456;SDS011;64036;48.266;14.192;2023-07-16T07:35:36;2.70;;;1.80;;
75456;SDS011;64036;48.266;14.192;2023-07-16T07:38:01;4.20;;;2.00;;
75456;SDS011;64036;48.266;14.192;2023-07-16T07:40:27;3.90;;;2.00;;
75456;SDS011;64036;48.266;14.192;2023-07-16T07:42:53;2.70;;;1.70;;
75456;SDS011;64036;48.266;14.192;2023-07-16T07:45:18;3.50;;;1.80;;
75456;SDS011;64036;48.266;14.192;2023-07-16T07:47:44;4.10;;;1.90;;
75456;SDS011;64036;48.266;14.192;2023-07-16T07:50:10;3.40;;;1.90;;
75456;SDS011;64036;48.266;14.192;2023-07-16T07:52:36;2.70;;;1.90;;
75456;SDS011;64036;48.266;14.192;2023-07-16T07:55:02;2.70;;;1.60;;
75456;SDS011;64036;48.266;14.192;2023-07-16T07:57:29;3.20;;;1.70;;
75456;SDS011;64036;48.266;14.192;2023-07-16T07:59:54;2.00;;;1.50;;
75456;SDS011;64036;48.266;14.192;2023-07-16T08:02:24;4.90;;;2.00;;
75456;SDS011;64036;48.266;14.192;2023-07-16T08:04:54;4.00;;;1.90;;
75456;SDS011;64036;48.266;14.192;2023-07-16T08:07:23;2.90;;;1.80;;
75456;SDS011;64036;48.266;14.192;2023-07-16T08:12:16;2.60;;;1.60;;
75456;SDS011;64036;48.266;14.192;2023-07-16T08:14:42;2.40;;;1.80;;
75456;SDS011;64036;48.266;14.192;2023-07-16T08:17:08;2.50;;;1.50;;
75456;SDS011;64036;48.266;14.192;2023-07-16T08:19:34;2.30;;;1.70;;
75456;SDS011;64036;48.266;14.192;2023-07-16T08:21:59;3.30;;;1.90;;
75456;SDS011;64036;48.266;14.192;2023-07-16T08:24:25;4.80;;;1.80;;
75456;SDS011;64036;48.266;14.192;2023-07-16T08:26:51;2.60;;;1.50;;
75456;SDS011;64036;48.266;14.192;2023-07-16T08:29:16;2.40;;;1.80;;
75456;SDS011;64036;48.266;14.192;2023-07-16T08:31:42;2.30;;;1.60;;
75456;SDS011;64036;48.266;14.192;2023-07-16T08:34:08;2.00;;;1.50;;
75456;SDS011;64036;48.266;14.192;2023-07-16T08:36:33;1.90;;;1.50;;
75456;SDS011;64036;48.266;14.192;2023-07-16T08:38:59;2.60;;;1.40;;
75456;SDS011;64036;48.266;14.192;2023-07-16T08:41:25;3.60;;;1.60;;
75456;SDS011;64036;48.266;14.192;2023-07-16T08:43:51;2.30;;;1.50;;
75456;SDS011;64036;48.266;14.192;2023-07-16T08:46:17;2.80;;;1.60;;
75456;SDS011;64036;48.266;14.192;2023-07-16T08:48:44;2.50;;;1.50;;
75456;SDS011;64036;48.266;14.192;2023-07-16T08:51:11;1.40;;;1.10;;
75456;SDS011;64036;48.266;14.192;2023-07-16T08:53:39;2.40;;;1.50;;
75456;SDS011;64036;48.266;14.192;2023-07-16T08:56:05;1.90;;;1.40;;
75456;SDS011;64036;48.266;14.192;2023-07-16T08:58:31;2.00;;;1.30;;
75456;SDS011;64036;48.266;14.192;2023-07-16T09:00:58;3.00;;;1.50;;
75456;SDS011;64036;48.266;14.192;2023-07-16T09:03:25;2.10;;;1.30;;
75456;SDS011;64036;48.266;14.192;2023-07-16T09:05:50;1.80;;;1.20;;
75456;SDS011;64036;48.266;14.192;2023-07-16T09:08:16;6.30;;;1.50;;
75456;SDS011;64036;48.266;14.192;2023-07-16T09:10:43;1.60;;;1.40;;
75456;SDS011;64036;48.266;14.192;2023-07-16T09:13:10;4.40;;;1.30;;
75456;SDS011;64036;48.266;14.192;2023-07-16T09:15:36;2.20;;;1.30;;
75456;SDS011;64036;48.266;14.192;2023-07-16T09:18:03;2.10;;;1.40;;
75456;SDS011;64036;48.266;14.192;2023-07-16T09:20:29;1.30;;;1.10;;
75456;SDS011;64036;48.266;14.192;2023-07-16T09:22:57;2.40;;;1.30;;
75456;SDS011;64036;48.266;14.192;2023-07-16T09:25:30;1.30;;;1.20;;
75456;SDS011;64036;48.266;14.192;2023-07-16T09:28:03;1.50;;;1.10;;
75456;SDS011;64036;48.266;14.192;2023-07-16T09:30:33;1.40;;;1.30;;
75456;SDS011;64036;48.266;14.192;2023-07-16T09:35:55;1.80;;;1.30;;
75456;SDS011;64036;48.266;14.192;2023-07-16T09:38:20;1.50;;;1.30;;
75456;SDS011;64036;48.266;14.192;2023-07-16T09:40:46;1.30;;;1.10;;
75456;SDS011;64036;48.266;14.192;2023-07-16T09:43:12;1.80;;;1.10;;
75456;SDS011;64036;48.266;14.192;2023-07-16T09:45:38;1.90;;;1.30;;
75456;SDS011;64036;48.266;14.192;2023-07-16T09:48:04;1.70;;;1.30;;
75456;SDS011;64036;48.266;14.192;2023-07-16T09:50:34;2.50;;;1.20;;
75456;SDS011;64036;48.266;14.192;2023-07-16T09:53:03;1.40;;;1.20;;
75456;SDS011;64036;48.266;14.192;2023-07-16T09:55:35;2.10;;;1.30;;
75456;SDS011;64036;48.266;14.192;2023-07-16T09:58:06;2.10;;;1.40;;
75456;SDS011;64036;48.266;14.192;2023-07-16T10:00:34;1.40;;;1.30;;
75456;SDS011;64036;48.266;14.192;2023-07-16T10:03:01;1.70;;;1.30;;
75456;SDS011;64036;48.266;14.192;2023-07-16T10:05:28;2.10;;;1.20;;
75456;SDS011;64036;48.266;14.192;2023-07-16T10:11:37;1.80;;;1.40;;
75456;SDS011;64036;48.266;14.192;2023-07-16T10:14:02;2.60;;;1.30;;
75456;SDS011;64036;48.266;14.192;2023-07-16T10:16:35;2.90;;;1.60;;
75456;SDS011;64036;48.266;14.192;2023-07-16T10:19:04;2.50;;;1.50;;
75456;SDS011;64036;48.266;14.192;2023-07-16T10:21:37;1.90;;;1.20;;
75456;SDS011;64036;48.266;14.192;2023-07-16T10:24:16;3.70;;;1.40;;
75456;SDS011;64036;48.266;14.192;2023-07-16T10:26:43;2.30;;;1.40;;
75456;SDS011;64036;48.266;14.192;2023-07-16T10:29:09;1.70;;;1.20;;
75456;SDS011;64036;48.266;14.192;2023-07-16T10:31:35;1.10;;;1.10;;
75456;SDS011;64036;48.266;14.192;2023-07-16T10:34:04;1.50;;;1.10;;
75456;SDS011;64036;48.266;14.192;2023-07-16T10:36:37;2.50;;;1.40;;
75456;SDS011;64036;48.266;14.192;2023-07-16T10:39:04;1.50;;;1.30;;
75456;SDS011;64036;48.266;14.192;2023-07-16T10:41:33;1.80;;;1.30;;
75456;SDS011;64036;48.266;14.192;2023-07-16T10:43:59;1.90;;;1.20;;
75456;SDS011;64036;48.266;14.192;2023-07-16T10:46:25;2.00;;;1.30;;
75456;SDS011;64036;48.266;14.192;2023-07-16T10:48:51;2.10;;;1.40;;
75456;SDS011;64036;48.266;14.192;2023-07-16T10:51:25;1.50;;;1.30;;
75456;SDS011;64036;48.266;14.192;2023-07-16T10:53:51;1.50;;;1.40;;
75456;SDS011;64036;48.266;14.192;2023-07-16T10:56:20;1.60;;;1.40;;
75456;SDS011;64036;48.266;14.192;2023-07-16T10:58:46;3.20;;;1.40;;
75456;SDS011;64036;48.266;14.192;2023-07-16T11:01:12;2.80;;;1.50;;
75456;SDS011;64036;48.266;14.192;2023-07-16T11:03:37;1.80;;;1.30;;
75456;SDS011;64036;48.266;14.192;2023-07-16T11:06:08;1.90;;;1.40;;
75456;SDS011;64036;48.266;14.192;2023-07-16T11:08:34;2.30;;;1.40;;
75456;SDS011;64036;48.266;14.192;2023-07-16T11:11:00;2.50;;;1.50;;
75456;SDS011;64036;48.266;14.192;2023-07-16T11:13:31;2.40;;;1.60;;
75456;SDS011;64036;48.266;14.192;2023-07-16T11:16:06;1.50;;;1.30;;
75456;SDS011;64036;48.266;14.192;2023-07-16T11:18:36;2.20;;;1.50;;
75456;SDS011;64036;48.266;14.192;2023-07-16T11:21:03;2.00;;;1.60;;
75456;SDS011;64036;48.266;14.192;2023-07-16T11:23:29;2.30;;;1.40;;
75456;SDS011;64036;48.266;14.192;2023-07-16T11:25:54;3.70;;;1.70;;
75456;SDS011;64036;48.266;14.192;2023-07-16T11:28:20;2.00;;;1.60;;
75456;SDS011;64036;48.266;14.192;2023-07-16T11:30:46;3.20;;;1.60;;
75456;SDS011;64036;48.266;14.192;2023-07-16T11:33:12;2.80;;;1.60;;
75456;SDS011;64036;48.266;14.192;2023-07-16T11:35:38;2.90;;;1.70;;
75456;SDS011;64036;48.266;14.192;2023-07-16T11:38:05;1.80;;;1.40;;
75456;SDS011;64036;48.266;14.192;2023-07-16T11:44:24;1.60;;;1.50;;
75456;SDS011;64036;48.266;14.192;2023-07-16T11:46:50;1.50;;;1.40;;
75456;SDS011;64036;48.266;14.192;2023-07-16T11:49:15;3.10;;;1.70;;
75456;SDS011;64036;48.266;14.192;2023-07-16T11:51:41;1.90;;;1.30;;
75456;SDS011;64036;48.266;14.192;2023-07-16T11:54:10;2.20;;;1.50;;
75456;SDS011;64036;48.266;14.192;2023-07-16T11:56:35;2.10;;;1.40;;
75456;SDS011;64036;48.266;14.192;2023-07-16T11:59:01;3.20;;;1.60;;
75456;SDS011;64036;48.266;14.192;2023-07-16T12:01:27;2.10;;;1.60;;
75456;SDS011;64036;48.266;14.192;2023-07-16T12:03:53;2.20;;;1.50;;
75456;SDS011;64036;48.266;14.192;2023-07-16T12:06:19;2.20;;;1.60;;
75456;SDS011;64036;48.266;14.192;2023-07-16T12:08:44;1.90;;;1.40;;
75456;SDS011;64036;48.266;14.192;2023-07-16T12:11:10;4.70;;;2.20;;
75456;SDS011;64036;48.266;14.192;2023-07-16T12:13:35;3.40;;;1.50;;
75456;SDS011;64036;48.266;14.192;2023-07-16T12:16:01;2.00;;;1.50;;
75456;SDS011;64036;48.266;14.192;2023-07-16T12:18:30;3.80;;;2.10;;
75456;SDS011;64036;48.266;14.192;2023-07-16T12:20:56;3.30;;;1.70;;
75456;SDS011;64036;48.266;14.192;2023-07-16T12:23:22;2.10;;;1.60;;
75456;SDS011;64036;48.266;14.192;2023-07-16T12:25:49;6.00;;;1.70;;
75456;SDS011;64036;48.266;14.192;2023-07-16T12:28:15;2.80;;;1.60;;
75456;SDS011;64036;48.266;14.192;2023-07-16T12:30:41;2.10;;;1.60;;
75456;SDS011;64036;48.266;14.192;2023-07-16T12:33:06;3.20;;;1.90;;
75456;SDS011;64036;48.266;14.192;2023-07-16T12:35:32;2.40;;;1.50;;
75456;SDS011;64036;48.266;14.192;2023-07-16T12:37:58;2.10;;;1.60;;
75456;SDS011;64036;48.266;14.192;2023-07-16T12:40:24;2.30;;;1.50;;
75456;SDS011;64036;48.266;14.192;2023-07-16T12:42:51;1.90;;;1.50;;
75456;SDS011;64036;48.266;14.192;2023-07-16T12:45:16;3.00;;;1.60;;
75456;SDS011;64036;48.266;14.192;2023-07-16T12:47:42;2.30;;;1.40;;
75456;SDS011;64036;48.266;14.192;2023-07-16T12:50:08;3.30;;;1.70;;
75456;SDS011;64036;48.266;14.192;2023-07-16T12:52:34;2.10;;;1.60;;
75456;SDS011;64036;48.266;14.192;2023-07-16T12:55:00;2.20;;;1.60;;
75456;SDS011;64036;48.266;14.192;2023-07-16T12:57:35;2.30;;;1.80;;
75456;SDS011;64036;48.266;14.192;2023-07-16T13:00:07;3.70;;;1.80;;
75456;SDS011;64036;48.266;14.192;2023-07-16T13:02:36;2.80;;;1.60;;
75456;SDS011;64036;48.266;14.192;2023-07-16T13:05:03;2.90;;;1.70;;
75456;SDS011;64036;48.266;14.192;2023-07-16T13:07:32;3.40;;;1.80;;
75456;SDS011;64036;48.266;14.192;2023-07-16T13:09:58;3.00;;;1.70;;
75456;SDS011;64036;48.266;14.192;2023-07-16T13:12:24;1.90;;;1.60;;
75456;SDS011;64036;48.266;14.192;2023-07-16T13:14:50;2.60;;;1.70;;
75456;SDS011;64036;48.266;14.192;2023-07-16T13:17:16;2.40;;;1.70;;
75456;SDS011;64036;48.266;14.192;2023-07-16T13:19:44;2.10;;;1.70;;
75456;SDS011;64036;48.266;14.192;2023-07-16T13:22:09;2.60;;;1.70;;
75456;SDS011;64036;48.266;14.192;2023-07-16T13:24:35;2.10;;;1.70;;
75456;SDS011;64036;48.266;14.192;2023-07-16T13:27:01;3.20;;;1.80;;
75456;SDS011;64036;48.266;14.192;2023-07-16T13:29:26;2.00;;;1.60;;
75456;SDS011;64036;48.266;14.192;2023-07-16T13:31:52;2.70;;;1.80;;
75456;SDS011;64036;48.266;14.192;2023-07-16T13:34:18;3.00;;;1.70;;
75456;SDS011;64036;48.266;14.192;2023-07-16T13:36:43;2.40;;;1.70;;
75456;SDS011;64036;48.266;14.192;2023-07-16T13:39:09;2.50;;;1.70;;
75456;SDS011;64036;48.266;14.192;2023-07-16T13:41:37;3.80;;;2.10;;
75456;SDS011;64036;48.266;14.192;2023-07-16T13:44:03;3.10;;;1.70;;
75456;SDS011;64036;48.266;14.192;2023-07-16T13:46:29;3.70;;;1.80;;
75456;SDS011;64036;48.266;14.192;2023-07-16T13:48:54;3.40;;;1.80;;
75456;SDS011;64036;48.266;14.192;2023-07-16T13:51:20;2.50;;;1.70;;
75456;SDS011;64036;48.266;14.192;2023-07-16T13:53:45;3.30;;;1.70;;
75456;SDS011;64036;48.266;14.192;2023-07-16T13:56:11;3.10;;;1.60;;
75456;SDS011;64036;48.266;14.192;2023-07-16T13:58:55;2.60;;;1.70;;
75456;SDS011;64036;48.266;14.192;2023-07-16T14:01:22;2.80;;;1.80;;
75456;SDS011;64036;48.266;14.192;2023-07-16T14:03:56;2.60;;;1.80;;
75456;SDS011;64036;48.266;14.192;2023-07-16T14:06:24;3.70;;;1.80;;
75456;SDS011;64036;48.266;14.192;2023-07-16T14:08:50;1.80;;;1.60;;
75456;SDS011;64036;48.266;14.192;2023-07-16T14:11:15;2.20;;;1.70;;
75456;SDS011;64036;48.266;14.192;2023-07-16T14:13:43;2.30;;;1.70;;
75456;SDS011;64036;48.266;14.192;2023-07-16T14:16:09;2.30;;;1.60;;
75456;SDS011;64036;48.266;14.192;2023-07-16T14:18:35;3.00;;;1.80;;
75456;SDS011;64036;48.266;14.192;2023-07-16T14:21:00;2.30;;;1.50;;
75456;SDS011;64036;48.266;14.192;2023-07-16T14:23:28;3.90;;;2.00;;
75456;SDS011;64036;48.266;14.192;2023-07-16T14:25:53;3.30;;;1.90;;
75456;SDS011;64036;48.266;14.192;2023-07-16T14:28:19;2.70;;;1.80;;
75456;SDS011;64036;48.266;14.192;2023-07-16T14:30:44;2.80;;;1.60;;
75456;SDS011;64036;48.266;14.192;2023-07-16T14:33:10;3.40;;;2.00;;
75456;SDS011;64036;48.266;14.192;2023-07-16T14:35:36;2.90;;;2.00;;
75456;SDS011;64036;48.266;14.192;2023-07-16T14:38:01;2.90;;;1.90;;
75456;SDS011;64036;48.266;14.192;2023-07-16T14:40:27;2.90;;;1.70;;
75456;SDS011;64036;48.266;14.192;2023-07-16T14:42:52;2.70;;;1.90;;
75456;SDS011;64036;48.266;14.192;2023-07-16T14:45:18;3.30;;;1.70;;
75456;SDS011;64036;48.266;14.192;2023-07-16T14:47:50;3.60;;;1.80;;
75456;SDS011;64036;48.266;14.192;2023-07-16T14:50:23;2.70;;;1.80;;
75456;SDS011;64036;48.266;14.192;2023-07-16T14:52:49;2.60;;;1.60;;
75456;SDS011;64036;48.266;14.192;2023-07-16T14:55:15;2.80;;;1.50;;
75456;SDS011;64036;48.266;14.192;2023-07-16T14:57:43;3.00;;;1.60;;